Greene, IA (50636)

2:03 AM CST on February 28, 2015 (GMT -0600)
IADOT Plainfield | Change Station
CLOSE
Current Station
Personal Weather Station
Location: Plainfield, IA
Elevation: 964 ft
Nearby Weather Stations
Active Advisory: Wind Chill Advisory Active Notice: Record Report

Elev 964 ft 42.83 °N, 92.54 °W | Updated 43 minutes ago

Partly Cloudy
Partly Cloudy
-16 °F
Feels Like -16 °F
N
0
Wind Variable Wind from North
Gusts 0.0 mph

Today
High -- | Low -- °F
--% Chance of Precip.
Yesterday
High -- | Low -- °F
Precip. -- in
6:49 AM 5:59 PM
Waxing Gibbous, 75% visible
Pressure 30.57 in
Visibility 10.0 miles
Clouds Clear
Windchill -16 °F
Dew Point -20 °F
Humidity 78%
Rainfall -999.00 in
Snow Depth Not available.
UV 0 out of 12
Pollen .40 out of 12
Air Quality Not available.
Flu Activity Not available.
METAR KCCY 280755Z AUTO 16007KT 10SM CLR M22/M25 A3057 RMK AO2

More Conditions Fewer Conditions

Pressure 30.57 in
Visibility 10.0 miles
Clouds Clear
Windchill -16 °F
Dew Point -20 °F
Humidity 78%
Rainfall -999.00 in
Snow Depth Not available.
UV 0 out of 12
Pollen .40 out of 12
Air Quality Not available.
Flu Activity Not available.
METAR KCCY 280755Z AUTO 16007KT 10SM CLR M22/M25 A3057 RMK AO2

More Conditions Fewer Conditions

10-Day Weather Forecast

Almanac

Astronomy

Feb. 28, 2015 Rise Set
Actual Time
Civil Twilight
Nautical Twilight
Astronomical Twilight
Moon
Length of Visible Light
Length of Day
Tomorrow will be .
, % of the Moon is Illuminated

Today's Extremes

State Highs State Lows

Community

WunderPhotos

Upload Photos

1,800,984 photos uploaded!

WunderBlogs® & News

Nearby

Air Quality

  Air Quality AQ Index Pollutant
Not available.

Snow Depth

Station Depth Elevation

Earthquake Activity

City Distance Mag. Time & Date
Minimum magnitude displayed is 2.5.

Coastal Water Temperatures

Place Temperature

Nearby Weather Stations

Wind Chill Advisory
Statement as of 8:48 PM CST on February 27, 2015

... Wind Chill Advisory remains in effect from midnight tonight to
9 am CST Saturday...

* timing... tonight through Saturday mid morning

* winds... south at 5 to 10 mph

* temperatures/wind chill values... temperatures teens below...
with wind chills 20 below zero to 30 below zero.

* Impacts... frost bite can develop within 30 minutes if skin is
exposed and hypothermia may occur if precautions are not taken.

Precautionary/preparedness actions...

A Wind Chill Advisory means that very cold air and strong winds
will combine to generate low wind chills. This will result in
frost bite and lead to hypothermia if precautions are not taken.
If you must venture outdoors... make sure you wear a hat and gloves.



Rev